sensor_id;sensor_type;location;lat;lon;timestamp;P1;durP1;ratioP1;P2;durP2;ratioP2
18726;SDS011;9492;51.888;5.186;2023-05-20T00:00:28;6.57;;;3.00;;
18726;SDS011;9492;51.888;5.186;2023-05-20T00:02:54;4.77;;;2.93;;
18726;SDS011;9492;51.888;5.186;2023-05-20T00:05:21;4.90;;;3.07;;
18726;SDS011;9492;51.888;5.186;2023-05-20T00:07:47;5.63;;;3.37;;
18726;SDS011;9492;51.888;5.186;2023-05-20T00:10:13;7.57;;;3.37;;
18726;SDS011;9492;51.888;5.186;2023-05-20T00:12:39;4.07;;;3.00;;
18726;SDS011;9492;51.888;5.186;2023-05-20T00:15:05;4.67;;;2.90;;
18726;SDS011;9492;51.888;5.186;2023-05-20T00:17:31;5.77;;;3.33;;
18726;SDS011;9492;51.888;5.186;2023-05-20T00:19:57;5.20;;;3.30;;
18726;SDS011;9492;51.888;5.186;2023-05-20T00:22:24;9.17;;;4.10;;
18726;SDS011;9492;51.888;5.186;2023-05-20T00:24:50;6.33;;;2.80;;
18726;SDS011;9492;51.888;5.186;2023-05-20T00:27:16;5.90;;;3.20;;
18726;SDS011;9492;51.888;5.186;2023-05-20T00:29:42;6.83;;;3.17;;
18726;SDS011;9492;51.888;5.186;2023-05-20T00:32:08;5.37;;;2.87;;
18726;SDS011;9492;51.888;5.186;2023-05-20T00:34:34;6.83;;;3.30;;
18726;SDS011;9492;51.888;5.186;2023-05-20T00:37:00;9.13;;;4.33;;
18726;SDS011;9492;51.888;5.186;2023-05-20T00:39:26;6.90;;;3.17;;
18726;SDS011;9492;51.888;5.186;2023-05-20T00:41:54;6.50;;;3.97;;
18726;SDS011;9492;51.888;5.186;2023-05-20T00:44:26;5.53;;;2.97;;
18726;SDS011;9492;51.888;5.186;2023-05-20T00:46:52;5.33;;;3.33;;
18726;SDS011;9492;51.888;5.186;2023-05-20T00:49:18;11.97;;;3.47;;
18726;SDS011;9492;51.888;5.186;2023-05-20T00:51:46;5.13;;;3.53;;
18726;SDS011;9492;51.888;5.186;2023-05-20T00:54:12;7.60;;;3.73;;
18726;SDS011;9492;51.888;5.186;2023-05-20T00:56:38;6.53;;;3.50;;
18726;SDS011;9492;51.888;5.186;2023-05-20T00:59:04;6.37;;;3.40;;
18726;SDS011;9492;51.888;5.186;2023-05-20T01:01:30;4.40;;;3.43;;
18726;SDS011;9492;51.888;5.186;2023-05-20T01:03:56;6.50;;;3.23;;
18726;SDS011;9492;51.888;5.186;2023-05-20T01:06:22;6.43;;;3.40;;
18726;SDS011;9492;51.888;5.186;2023-05-20T01:08:48;5.90;;;3.60;;
18726;SDS011;9492;51.888;5.186;2023-05-20T01:11:16;8.20;;;3.50;;
18726;SDS011;9492;51.888;5.186;2023-05-20T01:13:45;6.80;;;3.77;;
18726;SDS011;9492;51.888;5.186;2023-05-20T01:16:12;6.70;;;3.37;;
18726;SDS011;9492;51.888;5.186;2023-05-20T01:18:39;7.17;;;3.90;;
18726;SDS011;9492;51.888;5.186;2023-05-20T01:21:07;5.60;;;3.57;;
18726;SDS011;9492;51.888;5.186;2023-05-20T01:23:37;8.00;;;4.17;;
18726;SDS011;9492;51.888;5.186;2023-05-20T01:26:06;6.80;;;3.50;;
18726;SDS011;9492;51.888;5.186;2023-05-20T01:28:33;6.87;;;3.60;;
18726;SDS011;9492;51.888;5.186;2023-05-20T01:31:00;6.20;;;3.77;;
18726;SDS011;9492;51.888;5.186;2023-05-20T01:33:28;6.80;;;3.00;;
18726;SDS011;9492;51.888;5.186;2023-05-20T01:35:55;9.23;;;4.10;;
18726;SDS011;9492;51.888;5.186;2023-05-20T01:38:22;6.93;;;4.00;;
18726;SDS011;9492;51.888;5.186;2023-05-20T01:40:50;7.07;;;3.67;;
18726;SDS011;9492;51.888;5.186;2023-05-20T01:43:16;5.60;;;3.77;;
18726;SDS011;9492;51.888;5.186;2023-05-20T01:45:42;6.03;;;3.50;;
18726;SDS011;9492;51.888;5.186;2023-05-20T01:48:09;6.33;;;3.73;;
18726;SDS011;9492;51.888;5.186;2023-05-20T01:50:36;6.90;;;4.30;;
18726;SDS011;9492;51.888;5.186;2023-05-20T01:53:02;11.43;;;3.93;;
18726;SDS011;9492;51.888;5.186;2023-05-20T01:55:28;9.17;;;4.13;;
18726;SDS011;9492;51.888;5.186;2023-05-20T01:57:54;6.93;;;3.50;;
18726;SDS011;9492;51.888;5.186;2023-05-20T02:00:20;5.03;;;3.50;;
18726;SDS011;9492;51.888;5.186;2023-05-20T02:02:46;9.30;;;4.27;;
18726;SDS011;9492;51.888;5.186;2023-05-20T02:05:12;6.13;;;3.70;;
18726;SDS011;9492;51.888;5.186;2023-05-20T02:07:38;8.97;;;3.97;;
18726;SDS011;9492;51.888;5.186;2023-05-20T02:10:04;6.93;;;3.83;;
18726;SDS011;9492;51.888;5.186;2023-05-20T02:12:30;7.53;;;3.57;;
18726;SDS011;9492;51.888;5.186;2023-05-20T02:14:56;6.57;;;3.77;;
18726;SDS011;9492;51.888;5.186;2023-05-20T02:17:22;5.53;;;3.63;;
18726;SDS011;9492;51.888;5.186;2023-05-20T02:19:48;6.30;;;3.67;;
18726;SDS011;9492;51.888;5.186;2023-05-20T02:22:14;11.60;;;4.03;;
18726;SDS011;9492;51.888;5.186;2023-05-20T02:24:41;6.37;;;3.53;;
18726;SDS011;9492;51.888;5.186;2023-05-20T02:27:07;7.47;;;3.90;;
18726;SDS011;9492;51.888;5.186;2023-05-20T02:29:33;9.33;;;4.00;;
18726;SDS011;9492;51.888;5.186;2023-05-20T02:31:59;6.53;;;3.37;;
18726;SDS011;9492;51.888;5.186;2023-05-20T02:34:26;4.97;;;3.40;;
18726;SDS011;9492;51.888;5.186;2023-05-20T02:36:52;5.17;;;3.40;;
18726;SDS011;9492;51.888;5.186;2023-05-20T02:39:18;5.83;;;3.73;;
18726;SDS011;9492;51.888;5.186;2023-05-20T02:41:45;5.60;;;3.77;;
18726;SDS011;9492;51.888;5.186;2023-05-20T02:44:11;8.73;;;3.60;;
18726;SDS011;9492;51.888;5.186;2023-05-20T02:46:37;8.57;;;4.30;;
18726;SDS011;9492;51.888;5.186;2023-05-20T02:49:03;7.47;;;3.97;;
18726;SDS011;9492;51.888;5.186;2023-05-20T02:51:29;7.60;;;4.20;;
18726;SDS011;9492;51.888;5.186;2023-05-20T02:53:58;6.60;;;4.03;;
18726;SDS011;9492;51.888;5.186;2023-05-20T02:56:24;5.43;;;3.67;;
18726;SDS011;9492;51.888;5.186;2023-05-20T02:58:51;6.60;;;3.90;;
18726;SDS011;9492;51.888;5.186;2023-05-20T03:01:17;6.47;;;4.03;;
18726;SDS011;9492;51.888;5.186;2023-05-20T03:03:42;5.97;;;3.47;;
18726;SDS011;9492;51.888;5.186;2023-05-20T03:06:08;6.27;;;3.57;;
18726;SDS011;9492;51.888;5.186;2023-05-20T03:08:34;8.83;;;3.80;;
18726;SDS011;9492;51.888;5.186;2023-05-20T03:11:01;4.40;;;3.57;;
18726;SDS011;9492;51.888;5.186;2023-05-20T03:13:27;7.27;;;3.90;;
18726;SDS011;9492;51.888;5.186;2023-05-20T03:15:53;8.43;;;4.23;;
18726;SDS011;9492;51.888;5.186;2023-05-20T03:18:20;8.33;;;4.23;;
18726;SDS011;9492;51.888;5.186;2023-05-20T03:20:46;6.53;;;3.60;;
18726;SDS011;9492;51.888;5.186;2023-05-20T03:23:12;5.10;;;3.30;;
18726;SDS011;9492;51.888;5.186;2023-05-20T03:25:38;9.50;;;4.67;;
18726;SDS011;9492;51.888;5.186;2023-05-20T03:28:05;9.07;;;4.37;;
18726;SDS011;9492;51.888;5.186;2023-05-20T03:30:31;6.13;;;3.43;;
18726;SDS011;9492;51.888;5.186;2023-05-20T03:32:57;8.17;;;4.13;;
18726;SDS011;9492;51.888;5.186;2023-05-20T03:35:24;7.23;;;4.30;;
18726;SDS011;9492;51.888;5.186;2023-05-20T03:37:50;5.80;;;3.80;;
18726;SDS011;9492;51.888;5.186;2023-05-20T03:40:17;7.33;;;3.73;;
18726;SDS011;9492;51.888;5.186;2023-05-20T03:42:45;4.43;;;3.97;;
18726;SDS011;9492;51.888;5.186;2023-05-20T03:45:11;8.63;;;3.90;;
18726;SDS011;9492;51.888;5.186;2023-05-20T03:47:37;5.37;;;4.00;;
18726;SDS011;9492;51.888;5.186;2023-05-20T03:50:03;4.70;;;3.50;;
18726;SDS011;9492;51.888;5.186;2023-05-20T03:52:29;6.73;;;4.10;;
18726;SDS011;9492;51.888;5.186;2023-05-20T03:54:55;8.90;;;4.10;;
18726;SDS011;9492;51.888;5.186;2023-05-20T03:57:21;6.03;;;3.90;;
18726;SDS011;9492;51.888;5.186;2023-05-20T03:59:48;7.27;;;3.87;;
18726;SDS011;9492;51.888;5.186;2023-05-20T04:02:13;6.90;;;3.80;;
18726;SDS011;9492;51.888;5.186;2023-05-20T04:04:40;6.60;;;3.97;;
18726;SDS011;9492;51.888;5.186;2023-05-20T04:07:09;5.17;;;4.00;;
18726;SDS011;9492;51.888;5.186;2023-05-20T04:09:36;8.47;;;4.03;;
18726;SDS011;9492;51.888;5.186;2023-05-20T04:12:02;4.93;;;4.37;;
18726;SDS011;9492;51.888;5.186;2023-05-20T04:14:28;5.93;;;4.23;;
18726;SDS011;9492;51.888;5.186;2023-05-20T04:16:54;7.13;;;3.97;;
18726;SDS011;9492;51.888;5.186;2023-05-20T04:19:23;7.37;;;3.70;;
18726;SDS011;9492;51.888;5.186;2023-05-20T04:21:52;4.43;;;3.90;;
18726;SDS011;9492;51.888;5.186;2023-05-20T04:24:18;7.40;;;4.10;;
18726;SDS011;9492;51.888;5.186;2023-05-20T04:26:49;5.50;;;3.40;;
18726;SDS011;9492;51.888;5.186;2023-05-20T04:29:16;7.07;;;3.70;;
18726;SDS011;9492;51.888;5.186;2023-05-20T04:31:43;7.53;;;3.70;;
18726;SDS011;9492;51.888;5.186;2023-05-20T04:34:09;6.73;;;3.60;;
18726;SDS011;9492;51.888;5.186;2023-05-20T04:36:36;6.23;;;4.27;;
18726;SDS011;9492;51.888;5.186;2023-05-20T04:39:02;5.80;;;3.50;;
18726;SDS011;9492;51.888;5.186;2023-05-20T04:41:29;5.43;;;3.83;;
18726;SDS011;9492;51.888;5.186;2023-05-20T04:43:55;4.70;;;3.70;;
18726;SDS011;9492;51.888;5.186;2023-05-20T04:46:25;5.83;;;3.80;;
18726;SDS011;9492;51.888;5.186;2023-05-20T04:48:51;3.93;;;3.33;;
18726;SDS011;9492;51.888;5.186;2023-05-20T04:51:18;9.27;;;4.20;;
18726;SDS011;9492;51.888;5.186;2023-05-20T04:53:43;5.50;;;3.70;;
18726;SDS011;9492;51.888;5.186;2023-05-20T04:56:10;5.60;;;3.80;;
18726;SDS011;9492;51.888;5.186;2023-05-20T04:58:37;5.93;;;4.27;;
18726;SDS011;9492;51.888;5.186;2023-05-20T05:01:03;7.43;;;4.17;;
18726;SDS011;9492;51.888;5.186;2023-05-20T05:03:30;4.57;;;3.27;;
18726;SDS011;9492;51.888;5.186;2023-05-20T05:05:56;6.60;;;3.80;;
18726;SDS011;9492;51.888;5.186;2023-05-20T05:08:22;3.63;;;3.03;;
18726;SDS011;9492;51.888;5.186;2023-05-20T05:10:48;6.23;;;3.20;;
18726;SDS011;9492;51.888;5.186;2023-05-20T05:13:15;7.53;;;4.00;;
18726;SDS011;9492;51.888;5.186;2023-05-20T05:15:41;7.07;;;3.63;;
18726;SDS011;9492;51.888;5.186;2023-05-20T05:18:06;4.97;;;3.00;;
18726;SDS011;9492;51.888;5.186;2023-05-20T05:20:33;4.43;;;3.53;;
18726;SDS011;9492;51.888;5.186;2023-05-20T05:22:59;6.07;;;4.17;;
18726;SDS011;9492;51.888;5.186;2023-05-20T05:25:25;6.00;;;3.77;;
18726;SDS011;9492;51.888;5.186;2023-05-20T05:27:51;6.53;;;3.23;;
18726;SDS011;9492;51.888;5.186;2023-05-20T05:30:19;5.07;;;3.70;;
18726;SDS011;9492;51.888;5.186;2023-05-20T05:32:46;4.30;;;3.27;;
18726;SDS011;9492;51.888;5.186;2023-05-20T05:35:12;6.40;;;3.53;;
18726;SDS011;9492;51.888;5.186;2023-05-20T05:37:38;9.57;;;3.80;;
18726;SDS011;9492;51.888;5.186;2023-05-20T05:40:04;6.13;;;3.60;;
18726;SDS011;9492;51.888;5.186;2023-05-20T05:42:30;5.50;;;4.00;;
18726;SDS011;9492;51.888;5.186;2023-05-20T05:44:56;4.33;;;3.63;;
18726;SDS011;9492;51.888;5.186;2023-05-20T05:47:22;3.70;;;3.40;;
18726;SDS011;9492;51.888;5.186;2023-05-20T05:49:53;6.47;;;4.13;;
18726;SDS011;9492;51.888;5.186;2023-05-20T05:52:19;4.40;;;3.40;;
18726;SDS011;9492;51.888;5.186;2023-05-20T05:54:45;5.97;;;4.07;;
18726;SDS011;9492;51.888;5.186;2023-05-20T05:57:11;8.03;;;3.80;;
18726;SDS011;9492;51.888;5.186;2023-05-20T05:59:37;6.07;;;3.50;;
18726;SDS011;9492;51.888;5.186;2023-05-20T06:02:03;5.63;;;3.40;;
18726;SDS011;9492;51.888;5.186;2023-05-20T06:04:29;6.83;;;4.03;;
18726;SDS011;9492;51.888;5.186;2023-05-20T06:06:55;5.53;;;3.80;;
18726;SDS011;9492;51.888;5.186;2023-05-20T06:09:21;6.00;;;3.57;;
18726;SDS011;9492;51.888;5.186;2023-05-20T06:11:47;4.43;;;2.77;;
18726;SDS011;9492;51.888;5.186;2023-05-20T06:14:13;6.20;;;3.53;;
18726;SDS011;9492;51.888;5.186;2023-05-20T06:16:39;4.80;;;3.17;;
18726;SDS011;9492;51.888;5.186;2023-05-20T06:19:05;6.67;;;3.70;;
18726;SDS011;9492;51.888;5.186;2023-05-20T06:24:03;6.20;;;3.40;;
18726;SDS011;9492;51.888;5.186;2023-05-20T06:26:36;5.90;;;3.67;;
18726;SDS011;9492;51.888;5.186;2023-05-20T06:29:02;5.13;;;3.73;;
18726;SDS011;9492;51.888;5.186;2023-05-20T06:31:30;6.07;;;3.53;;
18726;SDS011;9492;51.888;5.186;2023-05-20T06:33:56;4.73;;;2.70;;
18726;SDS011;9492;51.888;5.186;2023-05-20T06:38:55;5.33;;;3.50;;
18726;SDS011;9492;51.888;5.186;2023-05-20T06:43:51;6.23;;;3.50;;
18726;SDS011;9492;51.888;5.186;2023-05-20T06:46:17;4.77;;;3.30;;
18726;SDS011;9492;51.888;5.186;2023-05-20T06:48:43;5.27;;;3.67;;
18726;SDS011;9492;51.888;5.186;2023-05-20T06:51:09;5.20;;;3.17;;
18726;SDS011;9492;51.888;5.186;2023-05-20T06:53:35;5.00;;;2.83;;
18726;SDS011;9492;51.888;5.186;2023-05-20T06:56:08;5.63;;;3.13;;
18726;SDS011;9492;51.888;5.186;2023-05-20T06:58:34;4.17;;;3.20;;
18726;SDS011;9492;51.888;5.186;2023-05-20T07:01:00;5.70;;;3.33;;
18726;SDS011;9492;51.888;5.186;2023-05-20T07:03:26;6.20;;;2.97;;
18726;SDS011;9492;51.888;5.186;2023-05-20T07:05:52;6.03;;;3.10;;
18726;SDS011;9492;51.888;5.186;2023-05-20T07:08:18;8.73;;;3.23;;
18726;SDS011;9492;51.888;5.186;2023-05-20T07:10:44;4.73;;;3.00;;
18726;SDS011;9492;51.888;5.186;2023-05-20T07:13:10;5.87;;;3.50;;
18726;SDS011;9492;51.888;5.186;2023-05-20T07:15:37;4.37;;;2.57;;
18726;SDS011;9492;51.888;5.186;2023-05-20T07:18:03;3.50;;;3.03;;
18726;SDS011;9492;51.888;5.186;2023-05-20T07:20:29;6.23;;;2.90;;
18726;SDS011;9492;51.888;5.186;2023-05-20T07:22:55;4.03;;;2.77;;
18726;SDS011;9492;51.888;5.186;2023-05-20T07:25:21;5.83;;;3.37;;
18726;SDS011;9492;51.888;5.186;2023-05-20T07:27:47;5.30;;;2.93;;
18726;SDS011;9492;51.888;5.186;2023-05-20T07:30:13;5.90;;;2.83;;
18726;SDS011;9492;51.888;5.186;2023-05-20T07:32:39;4.63;;;2.70;;
18726;SDS011;9492;51.888;5.186;2023-05-20T07:35:05;4.17;;;2.60;;
18726;SDS011;9492;51.888;5.186;2023-05-20T07:37:31;4.43;;;2.73;;
18726;SDS011;9492;51.888;5.186;2023-05-20T07:39:57;7.80;;;2.80;;
18726;SDS011;9492;51.888;5.186;2023-05-20T07:42:23;2.77;;;2.40;;
18726;SDS011;9492;51.888;5.186;2023-05-20T07:44:49;7.27;;;2.57;;
18726;SDS011;9492;51.888;5.186;2023-05-20T07:47:15;4.97;;;2.90;;
18726;SDS011;9492;51.888;5.186;2023-05-20T07:49:41;5.33;;;2.97;;
18726;SDS011;9492;51.888;5.186;2023-05-20T07:52:08;3.83;;;2.57;;
18726;SDS011;9492;51.888;5.186;2023-05-20T07:54:34;3.13;;;2.63;;
18726;SDS011;9492;51.888;5.186;2023-05-20T07:57:00;3.77;;;2.30;;
18726;SDS011;9492;51.888;5.186;2023-05-20T07:59:26;4.23;;;2.60;;
18726;SDS011;9492;51.888;5.186;2023-05-20T08:01:52;2.53;;;2.33;;
18726;SDS011;9492;51.888;5.186;2023-05-20T08:04:21;2.63;;;2.43;;
18726;SDS011;9492;51.888;5.186;2023-05-20T08:06:47;3.87;;;2.40;;
18726;SDS011;9492;51.888;5.186;2023-05-20T08:09:13;4.13;;;2.30;;
18726;SDS011;9492;51.888;5.186;2023-05-20T08:11:39;6.90;;;2.47;;
18726;SDS011;9492;51.888;5.186;2023-05-20T08:14:05;2.40;;;2.20;;
18726;SDS011;9492;51.888;5.186;2023-05-20T08:16:31;2.83;;;2.23;;
18726;SDS011;9492;51.888;5.186;2023-05-20T08:18:57;3.53;;;2.33;;
18726;SDS011;9492;51.888;5.186;2023-05-20T08:21:23;4.13;;;2.73;;
18726;SDS011;9492;51.888;5.186;2023-05-20T08:23:49;3.67;;;2.33;;
18726;SDS011;9492;51.888;5.186;2023-05-20T08:26:15;4.47;;;2.67;;
18726;SDS011;9492;51.888;5.186;2023-05-20T08:28:41;2.67;;;2.40;;
18726;SDS011;9492;51.888;5.186;2023-05-20T08:31:07;4.37;;;2.47;;
18726;SDS011;9492;51.888;5.186;2023-05-20T08:33:33;5.07;;;2.50;;
18726;SDS011;9492;51.888;5.186;2023-05-20T08:36:00;2.60;;;2.13;;
18726;SDS011;9492;51.888;5.186;2023-05-20T08:38:26;2.70;;;2.17;;
18726;SDS011;9492;51.888;5.186;2023-05-20T08:40:53;3.43;;;2.20;;
18726;SDS011;9492;51.888;5.186;2023-05-20T08:43:19;4.63;;;1.83;;
18726;SDS011;9492;51.888;5.186;2023-05-20T08:45:46;3.17;;;2.30;;
18726;SDS011;9492;51.888;5.186;2023-05-20T08:48:12;4.03;;;2.10;;
18726;SDS011;9492;51.888;5.186;2023-05-20T08:50:39;3.20;;;2.00;;
18726;SDS011;9492;51.888;5.186;2023-05-20T08:53:05;2.53;;;1.80;;
18726;SDS011;9492;51.888;5.186;2023-05-20T08:57:58;1.60;;;1.50;;
18726;SDS011;9492;51.888;5.186;2023-05-20T09:00:24;3.67;;;1.77;;
18726;SDS011;9492;51.888;5.186;2023-05-20T09:02:52;2.93;;;1.53;;
18726;SDS011;9492;51.888;5.186;2023-05-20T09:05:18;2.30;;;1.73;;
18726;SDS011;9492;51.888;5.186;2023-05-20T09:07:45;3.33;;;1.73;;
18726;SDS011;9492;51.888;5.186;2023-05-20T09:10:11;4.00;;;2.00;;
18726;SDS011;9492;51.888;5.186;2023-05-20T09:12:37;3.37;;;1.80;;
18726;SDS011;9492;51.888;5.186;2023-05-20T09:15:04;3.40;;;1.97;;
18726;SDS011;9492;51.888;5.186;2023-05-20T09:17:31;3.90;;;1.73;;
18726;SDS011;9492;51.888;5.186;2023-05-20T09:19:57;2.53;;;1.80;;
18726;SDS011;9492;51.888;5.186;2023-05-20T09:22:24;3.47;;;2.00;;
18726;SDS011;9492;51.888;5.186;2023-05-20T09:24:53;2.47;;;1.77;;
18726;SDS011;9492;51.888;5.186;2023-05-20T09:27:20;2.00;;;1.80;;
18726;SDS011;9492;51.888;5.186;2023-05-20T09:29:46;2.77;;;1.83;;
18726;SDS011;9492;51.888;5.186;2023-05-20T09:32:13;1.73;;;1.63;;
18726;SDS011;9492;51.888;5.186;2023-05-20T09:34:39;3.43;;;2.00;;
18726;SDS011;9492;51.888;5.186;2023-05-20T09:37:09;1.50;;;1.40;;
18726;SDS011;9492;51.888;5.186;2023-05-20T09:39:42;4.03;;;2.53;;
18726;SDS011;9492;51.888;5.186;2023-05-20T09:42:22;3.80;;;1.70;;
18726;SDS011;9492;51.888;5.186;2023-05-20T09:44:53;1.70;;;1.33;;
18726;SDS011;9492;51.888;5.186;2023-05-20T09:47:22;2.83;;;1.97;;
18726;SDS011;9492;51.888;5.186;2023-05-20T09:49:51;1.83;;;1.53;;
18726;SDS011;9492;51.888;5.186;2023-05-20T09:52:17;3.17;;;2.33;;
18726;SDS011;9492;51.888;5.186;2023-05-20T09:54:44;2.17;;;1.60;;
18726;SDS011;9492;51.888;5.186;2023-05-20T09:57:10;4.40;;;2.13;;
18726;SDS011;9492;51.888;5.186;2023-05-20T09:59:39;1.63;;;1.53;;
18726;SDS011;9492;51.888;5.186;2023-05-20T10:02:06;2.37;;;2.00;;
18726;SDS011;9492;51.888;5.186;2023-05-20T10:04:33;1.97;;;1.50;;
18726;SDS011;9492;51.888;5.186;2023-05-20T10:07:22;4.00;;;2.00;;
18726;SDS011;9492;51.888;5.186;2023-05-20T10:12:37;3.17;;;1.83;;
18726;SDS011;9492;51.888;5.186;2023-05-20T10:17:47;2.47;;;2.00;;
18726;SDS011;9492;51.888;5.186;2023-05-20T10:20:16;5.47;;;2.13;;
18726;SDS011;9492;51.888;5.186;2023-05-20T10:22:42;2.07;;;1.70;;
18726;SDS011;9492;51.888;5.186;2023-05-20T10:25:11;2.50;;;1.67;;
18726;SDS011;9492;51.888;5.186;2023-05-20T10:27:43;3.83;;;1.60;;
18726;SDS011;9492;51.888;5.186;2023-05-20T10:30:19;2.53;;;1.90;;
18726;SDS011;9492;51.888;5.186;2023-05-20T10:32:53;2.10;;;1.47;;
18726;SDS011;9492;51.888;5.186;2023-05-20T10:35:23;1.87;;;1.50;;
18726;SDS011;9492;51.888;5.186;2023-05-20T10:37:53;1.50;;;1.40;;
18726;SDS011;9492;51.888;5.186;2023-05-20T10:40:21;2.40;;;1.70;;
18726;SDS011;9492;51.888;5.186;2023-05-20T10:42:47;2.13;;;1.93;;
18726;SDS011;9492;51.888;5.186;2023-05-20T10:45:26;5.43;;;1.87;;
18726;SDS011;9492;51.888;5.186;2023-05-20T10:47:53;5.33;;;1.77;;
18726;SDS011;9492;51.888;5.186;2023-05-20T10:50:40;3.13;;;1.73;;
18726;SDS011;9492;51.888;5.186;2023-05-20T10:53:10;3.50;;;1.40;;
18726;SDS011;9492;51.888;5.186;2023-05-20T10:55:37;2.37;;;1.83;;
18726;SDS011;9492;51.888;5.186;2023-05-20T10:58:04;1.40;;;1.30;;
18726;SDS011;9492;51.888;5.186;2023-05-20T11:00:31;1.90;;;1.53;;
18726;SDS011;9492;51.888;5.186;2023-05-20T11:02:57;4.87;;;2.00;;
18726;SDS011;9492;51.888;5.186;2023-05-20T11:05:23;4.63;;;2.10;;
18726;SDS011;9492;51.888;5.186;2023-05-20T11:07:59;2.47;;;1.50;;
18726;SDS011;9492;51.888;5.186;2023-05-20T11:10:25;1.70;;;1.60;;
18726;SDS011;9492;51.888;5.186;2023-05-20T11:12:51;5.27;;;2.40;;
18726;SDS011;9492;51.888;5.186;2023-05-20T11:15:17;3.73;;;1.77;;
18726;SDS011;9492;51.888;5.186;2023-05-20T11:17:56;2.57;;;1.83;;
18726;SDS011;9492;51.888;5.186;2023-05-20T11:20:23;3.70;;;2.23;;
18726;SDS011;9492;51.888;5.186;2023-05-20T11:22:52;3.03;;;1.50;;
18726;SDS011;9492;51.888;5.186;2023-05-20T11:25:18;3.00;;;2.10;;
18726;SDS011;9492;51.888;5.186;2023-05-20T11:27:45;1.80;;;1.70;;
18726;SDS011;9492;51.888;5.186;2023-05-20T11:30:12;3.27;;;1.67;;
18726;SDS011;9492;51.888;5.186;2023-05-20T11:33:03;2.93;;;2.23;;
18726;SDS011;9492;51.888;5.186;2023-05-20T11:35:29;3.97;;;1.80;;
18726;SDS011;9492;51.888;5.186;2023-05-20T11:38:02;2.93;;;1.80;;
18726;SDS011;9492;51.888;5.186;2023-05-20T11:40:30;2.17;;;1.80;;
18726;SDS011;9492;51.888;5.186;2023-05-20T11:42:57;2.83;;;1.70;;
18726;SDS011;9492;51.888;5.186;2023-05-20T11:45:23;3.73;;;1.80;;
18726;SDS011;9492;51.888;5.186;2023-05-20T11:48:04;1.60;;;1.50;;
18726;SDS011;9492;51.888;5.186;2023-05-20T11:50:40;2.23;;;1.70;;
18726;SDS011;9492;51.888;5.186;2023-05-20T11:53:07;3.70;;;1.87;;
18726;SDS011;9492;51.888;5.186;2023-05-20T11:55:34;2.83;;;1.43;;
18726;SDS011;9492;51.888;5.186;2023-05-20T11:58:00;2.73;;;1.53;;
18726;SDS011;9492;51.888;5.186;2023-05-20T12:00:27;6.57;;;2.57;;
18726;SDS011;9492;51.888;5.186;2023-05-20T12:02:53;2.57;;;2.00;;
18726;SDS011;9492;51.888;5.186;2023-05-20T12:05:19;3.67;;;1.77;;
18726;SDS011;9492;51.888;5.186;2023-05-20T12:07:45;3.50;;;1.80;;
18726;SDS011;9492;51.888;5.186;2023-05-20T12:10:11;3.10;;;2.10;;
18726;SDS011;9492;51.888;5.186;2023-05-20T12:12:37;3.53;;;1.67;;
18726;SDS011;9492;51.888;5.186;2023-05-20T12:15:04;5.27;;;1.90;;
18726;SDS011;9492;51.888;5.186;2023-05-20T12:17:43;1.87;;;1.73;;
18726;SDS011;9492;51.888;5.186;2023-05-20T12:20:10;3.43;;;1.70;;
18726;SDS011;9492;51.888;5.186;2023-05-20T12:22:36;4.53;;;2.20;;
18726;SDS011;9492;51.888;5.186;2023-05-20T12:25:02;2.93;;;2.20;;
18726;SDS011;9492;51.888;5.186;2023-05-20T12:27:28;3.90;;;1.97;;
18726;SDS011;9492;51.888;5.186;2023-05-20T12:29:54;1.60;;;1.50;;
18726;SDS011;9492;51.888;5.186;2023-05-20T12:32:20;3.07;;;1.90;;
18726;SDS011;9492;51.888;5.186;2023-05-20T12:34:47;2.70;;;1.70;;
18726;SDS011;9492;51.888;5.186;2023-05-20T12:37:13;9.23;;;2.30;;
18726;SDS011;9492;51.888;5.186;2023-05-20T12:39:39;4.27;;;1.70;;
18726;SDS011;9492;51.888;5.186;2023-05-20T12:42:05;1.57;;;1.30;;
18726;SDS011;9492;51.888;5.186;2023-05-20T12:44:31;4.07;;;1.77;;
18726;SDS011;9492;51.888;5.186;2023-05-20T12:46:57;2.67;;;1.60;;
18726;SDS011;9492;51.888;5.186;2023-05-20T12:49:23;2.90;;;1.93;;
18726;SDS011;9492;51.888;5.186;2023-05-20T12:51:49;1.40;;;1.30;;
18726;SDS011;9492;51.888;5.186;2023-05-20T12:54:16;2.80;;;1.73;;
18726;SDS011;9492;51.888;5.186;2023-05-20T12:56:42;3.23;;;1.43;;
18726;SDS011;9492;51.888;5.186;2023-05-20T12:59:11;3.80;;;1.67;;
18726;SDS011;9492;51.888;5.186;2023-05-20T13:01:37;3.57;;;1.73;;
18726;SDS011;9492;51.888;5.186;2023-05-20T13:04:04;4.10;;;2.10;;
18726;SDS011;9492;51.888;5.186;2023-05-20T13:06:30;3.00;;;1.33;;
18726;SDS011;9492;51.888;5.186;2023-05-20T13:08:56;6.63;;;1.90;;
18726;SDS011;9492;51.888;5.186;2023-05-20T13:11:22;2.87;;;1.60;;
18726;SDS011;9492;51.888;5.186;2023-05-20T13:13:48;2.40;;;1.60;;
18726;SDS011;9492;51.888;5.186;2023-05-20T13:16:14;3.53;;;2.03;;
18726;SDS011;9492;51.888;5.186;2023-05-20T13:18:41;2.73;;;1.77;;
18726;SDS011;9492;51.888;5.186;2023-05-20T13:21:07;3.60;;;1.97;;
18726;SDS011;9492;51.888;5.186;2023-05-20T13:23:33;2.80;;;1.30;;
18726;SDS011;9492;51.888;5.186;2023-05-20T13:26:01;2.10;;;1.60;;
18726;SDS011;9492;51.888;5.186;2023-05-20T13:28:27;2.37;;;1.73;;
18726;SDS011;9492;51.888;5.186;2023-05-20T13:30:53;1.60;;;1.50;;
18726;SDS011;9492;51.888;5.186;2023-05-20T13:33:18;1.57;;;1.47;;
18726;SDS011;9492;51.888;5.186;2023-05-20T13:35:47;3.70;;;1.77;;
18726;SDS011;9492;51.888;5.186;2023-05-20T13:38:13;2.10;;;1.57;;
18726;SDS011;9492;51.888;5.186;2023-05-20T13:40:39;1.60;;;1.50;;
18726;SDS011;9492;51.888;5.186;2023-05-20T13:43:04;4.33;;;1.97;;
18726;SDS011;9492;51.888;5.186;2023-05-20T13:45:30;2.00;;;1.77;;
18726;SDS011;9492;51.888;5.186;2023-05-20T13:47:56;3.17;;;1.60;;
18726;SDS011;9492;51.888;5.186;2023-05-20T13:50:22;3.60;;;1.77;;
18726;SDS011;9492;51.888;5.186;2023-05-20T13:52:49;2.33;;;1.40;;
18726;SDS011;9492;51.888;5.186;2023-05-20T13:55:15;2.97;;;1.60;;
18726;SDS011;9492;51.888;5.186;2023-05-20T13:57:41;2.07;;;1.70;;
18726;SDS011;9492;51.888;5.186;2023-05-20T14:00:07;1.87;;;1.60;;
18726;SDS011;9492;51.888;5.186;2023-05-20T14:02:34;2.10;;;1.33;;
18726;SDS011;9492;51.888;5.186;2023-05-20T14:05:01;1.97;;;1.63;;
18726;SDS011;9492;51.888;5.186;2023-05-20T14:07:27;2.00;;;1.40;;
18726;SDS011;9492;51.888;5.186;2023-05-20T14:09:53;1.97;;;1.50;;
18726;SDS011;9492;51.888;5.186;2023-05-20T14:12:19;3.83;;;1.47;;
18726;SDS011;9492;51.888;5.186;2023-05-20T14:14:46;2.20;;;1.60;;
18726;SDS011;9492;51.888;5.186;2023-05-20T14:17:12;1.13;;;1.03;;
18726;SDS011;9492;51.888;5.186;2023-05-20T14:19:38;1.50;;;1.40;;
18726;SDS011;9492;51.888;5.186;2023-05-20T14:22:05;2.20;;;1.50;;
18726;SDS011;9492;51.888;5.186;2023-05-20T14:24:31;2.60;;;1.73;;
18726;SDS011;9492;51.888;5.186;2023-05-20T14:26:57;2.10;;;1.90;;
18726;SDS011;9492;51.888;5.186;2023-05-20T14:29:22;6.03;;;2.07;;
18726;SDS011;9492;51.888;5.186;2023-05-20T14:31:48;2.13;;;1.57;;
18726;SDS011;9492;51.888;5.186;2023-05-20T14:34:14;1.50;;;1.40;;
18726;SDS011;9492;51.888;5.186;2023-05-20T14:36:40;3.50;;;1.63;;
18726;SDS011;9492;51.888;5.186;2023-05-20T14:39:07;1.70;;;1.50;;
18726;SDS011;9492;51.888;5.186;2023-05-20T14:41:33;1.47;;;1.30;;
18726;SDS011;9492;51.888;5.186;2023-05-20T14:43:59;4.13;;;1.43;;
18726;SDS011;9492;51.888;5.186;2023-05-20T14:46:25;2.40;;;1.57;;
18726;SDS011;9492;51.888;5.186;2023-05-20T14:48:51;1.67;;;1.50;;
18726;SDS011;9492;51.888;5.186;2023-05-20T14:51:17;1.30;;;1.20;;
18726;SDS011;9492;51.888;5.186;2023-05-20T14:53:43;4.80;;;1.57;;
18726;SDS011;9492;51.888;5.186;2023-05-20T14:56:09;2.10;;;1.37;;
18726;SDS011;9492;51.888;5.186;2023-05-20T14:58:35;2.17;;;1.63;;
18726;SDS011;9492;51.888;5.186;2023-05-20T15:01:01;2.13;;;1.67;;
18726;SDS011;9492;51.888;5.186;2023-05-20T15:03:28;2.43;;;1.13;;
18726;SDS011;9492;51.888;5.186;2023-05-20T15:05:54;1.53;;;1.20;;
18726;SDS011;9492;51.888;5.186;2023-05-20T15:08:20;2.17;;;1.70;;
18726;SDS011;9492;51.888;5.186;2023-05-20T15:10:46;2.33;;;1.57;;
18726;SDS011;9492;51.888;5.186;2023-05-20T15:13:12;1.77;;;1.67;;